Time,TemperatureF,DewpointF,PressureIn,WindDirection,WindDirectionDegrees,WindSpeedMPH,WindSpeedGustMPH,Humidity,HourlyPrecipIn,Conditions,Clouds,dailyrainin,SoftwareType,DateUTC
2013-01-14 00:30:00,57.2,56.1,30.03,SW,216,6.0,6.0,96,0.00,,OVC019,-99.99,VWS V12.06,2013-01-14 05:30:00,
2013-01-14 00:32:00,58.3,54.5,29.99,WSW,238,0.0,4.0,87,0.00,,OVC019,-99.99,VWS V12.06,2013-01-14 05:32:00,
2013-01-14 01:00:00,57.1,56.3,30.03,SW,218,4.0,6.0,97,0.01, DZ,,-99.99,VWS V12.06,2013-01-14 06:00:00,
2013-01-14 01:02:00,57.1,56.3,26.92,SW,234,5.0,12.0,97,0.01, DZ,,-99.99,VWS V12.06,2013-01-14 06:02:00,
2013-01-14 01:30:00,57.2,56.4,30.04,SW,232,5.0,5.0,97,0.01, DZ,,-99.99,VWS V12.06,2013-01-14 06:30:00,
2013-01-14 02:00:00,57.4,56.6,30.05,SW,232,3.0,6.0,97,0.07, +RA, +RA,-99.99,VWS V12.06,2013-01-14 07:00:00,
2013-01-14 02:30:00,57.4,56.6,30.05,SW,217,0.0,0.0,97,0.25, +RA, +RA,-99.99,VWS V12.06,2013-01-14 07:30:00,
2013-01-14 03:00:00,56.4,55.6,30.05,South,171,5.0,5.0,97,0.21,,OVC050,-99.99,VWS V12.06,2013-01-14 08:00:00,
2013-01-14 03:30:00,56.4,55.6,30.04,SSW,206,2.0,3.0,97,0.02,,OVC050,-99.99,VWS V12.06,2013-01-14 08:30:00,
2013-01-14 04:00:00,56.5,55.9,30.03,SW,227,3.0,5.0,98,0.00, -RA,-RA,-99.99,VWS V12.06,2013-01-14 09:00:00,
2013-01-14 04:30:00,56.5,55.9,30.02,SW,224,5.0,6.0,98,0.01, -RA,-RA,-99.99,VWS V12.06,2013-01-14 09:30:00,
2013-01-14 05:00:00,56.6,56.0,30.01,SW,226,5.0,6.0,98,0.02,,OVC003,-99.99,VWS V12.06,2013-01-14 10:00:00,
2013-01-14 05:30:00,56.5,55.9,30.01,SSW,213,8.0,8.0,98,0.01,,OVC003,-99.99,VWS V12.06,2013-01-14 10:30:00,
2013-01-14 06:00:00,56.4,55.8,30.02,SW,219,5.0,11.0,98,0.00, -RA,-RA,-99.99,VWS V12.06,2013-01-14 11:00:00,
2013-01-14 06:30:00,56.4,55.8,30.02,SW,219,4.0,5.0,98,0.00, -RA,-RA,-99.99,VWS V12.06,2013-01-14 11:30:00,
2013-01-14 07:00:00,56.4,55.8,30.03,SW,233,4.0,4.0,98,0.00, RA,RA,-99.99,VWS V12.06,2013-01-14 12:00:00,
2013-01-14 07:30:00,56.5,55.9,30.03,SSW,213,2.0,3.0,98,0.00, RA,RA,-99.99,VWS V12.06,2013-01-14 12:30:00,
2013-01-14 08:00:00,56.5,55.9,30.05,SW,220,3.0,4.0,98,0.00, RA,RA,-99.99,VWS V12.06,2013-01-14 13:00:00,
2013-01-14 08:30:00,56.6,56.0,30.06,SW,227,4.0,6.0,98,0.04, RA,RA,-99.99,VWS V12.06,2013-01-14 13:30:00,
2013-01-14 09:00:00,56.6,56.0,30.06,SW,220,1.0,2.0,98,0.04,,OVC003,-99.99,VWS V12.06,2013-01-14 14:00:00,
2013-01-14 09:30:00,56.7,56.1,30.07,SW,215,5.0,5.0,98,0.01,,OVC003,-99.99,VWS V12.06,2013-01-14 14:30:00,
2013-01-14 10:02:00,56.0,54.0,30.04,WNW,287,3.0,4.0,93,0.00,,,-99.99,VWS V12.06,2013-01-14 15:02:00,
2013-01-14 10:32:00,56.0,54.0,30.05,West,265,1.0,2.0,93,0.09,,,-99.99,VWS V12.06,2013-01-14 15:32:00,
2013-01-14 11:02:00,55.8,53.8,30.04,WNW,290,3.0,3.0,93,0.09, +RA, +RA,-99.99,VWS V12.06,2013-01-14 16:02:00,
2013-01-14 11:30:00,56.9,56.3,30.07,SW,234,3.0,3.0,98,0.08, +RA, +RA,-99.99,VWS V12.06,2013-01-14 16:30:00,
2013-01-14 12:00:00,56.9,56.3,30.06,WSW,240,1.0,2.0,98,0.07, RA,RA,-99.99,VWS V12.06,2013-01-14 17:00:00,
2013-01-14 12:30:00,57.2,56.6,30.05,WSW,240,0.0,0.0,98,0.06, RA,RA,-99.99,VWS V12.06,2013-01-14 17:30:00,
2013-01-14 13:00:00,56.9,56.3,30.05,SSW,198,0.0,0.0,98,0.03, RA,RA,-99.99,VWS V12.06,2013-01-14 18:00:00,
2013-01-14 13:30:00,57.3,57.0,30.03,SSW,198,1.0,2.0,99,0.01, RA,RA,-99.99,VWS V12.06,2013-01-14 18:30:00,
2013-01-14 14:00:00,57.2,56.6,30.03,East,85,0.0,1.0,98,0.01, DZ,,-99.99,VWS V12.06,2013-01-14 19:00:00,
2013-01-14 14:30:00,57.2,56.6,30.04,East,89,3.0,3.0,98,0.08, DZ,,-99.99,VWS V12.06,2013-01-14 19:30:00,
2013-01-14 15:00:00,57.1,56.5,30.05,South,176,2.0,3.0,98,0.16, RA,RA,-99.99,VWS V12.06,2013-01-14 20:00:00,
2013-01-14 15:30:00,57.0,56.4,30.06,ESE,121,1.0,1.0,98,0.19, RA,RA,-99.99,VWS V12.06,2013-01-14 20:30:00,
2013-01-14 16:00:00,57.1,56.5,30.07,SSW,194,4.0,4.0,98,0.25, +RA, +RA,-99.99,VWS V12.06,2013-01-14 21:00:00,
2013-01-14 16:30:00,57.3,57.0,30.08,SSW,203,0.0,0.0,99,0.24, +RA, +RA,-99.99,VWS V12.06,2013-01-14 21:30:00,
2013-01-14 17:00:00,57.0,56.4,30.08,NE,56,2.0,3.0,98,0.28, RA,RA,-99.99,VWS V12.06,2013-01-14 22:00:00,
2013-01-14 17:30:00,56.8,56.5,30.07,East,82,9.0,10.0,99,0.27, RA,RA,-99.99,VWS V12.06,2013-01-14 22:30:00,
2013-01-14 18:00:00,55.6,55.0,30.08,ENE,62,3.0,7.0,98,0.16, RA,RA,-99.99,VWS V12.06,2013-01-14 23:00:00,
2013-01-14 18:30:00,55.1,54.8,30.09,NE,36,3.0,3.0,99,0.24, RA,RA,-99.99,VWS V12.06,2013-01-14 23:30:00,
2013-01-14 19:00:00,54.4,54.1,30.09,SE,136,3.0,3.0,99,0.22, RA,RA,-99.99,VWS V12.06,2013-01-15 00:00:00,
2013-01-14 19:30:00,56.6,56.3,30.08,SW,227,0.0,4.0,99,0.11, RA,RA,-99.99,VWS V12.06,2013-01-15 00:30:00,
2013-01-14 20:00:00,56.6,56.3,30.07,SSW,202,4.0,9.0,99,0.07, RA,RA,-99.99,VWS V12.06,2013-01-15 01:00:00,
2013-01-14 20:30:00,56.2,55.9,30.09,West,279,2.0,4.0,99,0.13, RA,RA,-99.99,VWS V12.06,2013-01-15 01:30:00,
2013-01-14 21:00:00,53.3,52.8,30.08,NNW,341,5.0,6.0,98,0.15, RA,RA,-99.99,VWS V12.06,2013-01-15 02:00:00,
2013-01-14 21:30:00,52.8,52.2,30.08,NNW,348,6.0,11.0,98,0.05, RA,RA,-99.99,VWS V12.06,2013-01-15 02:30:00,
2013-01-14 22:00:00,51.3,50.8,30.09,NW,310,2.0,7.0,98,0.07, DZ,,-99.99,VWS V12.06,2013-01-15 03:00:00,
2013-01-14 22:30:00,50.3,49.8,30.09,NNE,12,10.0,12.0,98,0.07, DZ,,-99.99,VWS V12.06,2013-01-15 03:30:00,
2013-01-14 23:00:00,49.7,48.9,30.09,ENE,59,5.0,19.0,97,0.01, RA,RA,-99.99,VWS V12.06,2013-01-15 04:00:00,
2013-01-14 23:30:00,49.9,49.4,30.10,NE,42,6.0,9.0,98,0.04, RA,RA,-99.99,VWS V12.06,2013-01-15 04:30:00,